• Join FlightAware (Why Join?)
  • Login
  • US Flag 
08:33AM EDT


 

Airport Tracker/Info


-or-


 

Live Flight TrackerFlight Track Log ✈ QJE1704 ✈ 15-Apr-2013 ✈ YBBN / BNE - YGLA / GLT

Flight Track Log - Related Links

Times and Time Zones

All times are in EDT time to prevent confusion due to time zone crossing. See the QJE1704 flight status page for this flight to view local times or setup timezone preferences in your user account.

Time Position Orientation Groundspeed Altitude Reporting Facility
EDT Latitude Longitude Course Direction KTS MPH feet Rate Location/Type
07:09PM -27.4081 153.1153 207° Southwest 166 191 1,200  Level Aus ATC (RADAR)
07:10PM -27.4640 153.0833 207° Southwest 223 257 3,400 2,160 Climbing Aus ATC (RADAR)
07:10PM -27.4781 153.0748 208° Southwest 228 262 4,100 2,940 Climbing Aus ATC (RADAR)
07:11PM -27.4968 153.0342 243° Southwest 234 269 6,100 2,880 Climbing Aus ATC (RADAR)
07:12PM -27.4387 152.9973 331° Northwest 255 293 8,900 2,520 Climbing Aus ATC (RADAR)
07:12PM -27.3970 153.0114 17° North 275 316 10,100 1,560 Climbing Aus ATC (RADAR)
07:13PM -27.3159 153.0791 37° Northeast 353 406 11,500 1,380 Climbing Aus ATC (RADAR)
07:14PM -27.2674 153.1213 38° Northeast 383 441 12,400 2,760 Climbing Aus ATC (RADAR)
07:15PM -27.1819 153.1816 32° Northeast 362 417 15,900 3,360 Climbing Aus ATC (RADAR)
07:15PM -27.1499 153.1870 North 352 405 16,900 2,400 Climbing Aus ATC (RADAR)
07:16PM -27.0935 153.1999 12° North 356 410 18,100 1,620 Climbing Aus ATC (RADAR)
07:17PM -26.9888 153.2222 11° North 388 447 19,500 1,320 Climbing Aus ATC (RADAR)
07:18PM -26.9244 153.2368 11° North 404 465 20,300 1,260 Climbing Aus ATC (RADAR)
07:19PM -26.7899 153.2656 11° North 426 490 21,800 1,500 Climbing Aus ATC (RADAR)
07:20PM -26.6212 153.3010 11° North 435 501 24,300 1,800 Climbing Aus ATC (RADAR)
07:21PM -26.5440 153.2895 352° North 416 479 25,600 1,740 Climbing Aus ATC (RADAR)
07:21PM -26.5162 153.2795 342° North 412 474 25,900 720 Climbing Aus ATC (RADAR)
07:22PM -26.4565 153.2453 333° Northwest 407 468 26,200 840 Climbing Aus ATC (RADAR)
07:22PM -26.3777 153.1806 324° Northwest 416 479 27,100 900 Climbing Aus ATC (RADAR)
07:23PM -26.3219 153.1365 325° Northwest 417 480 27,500 960 Climbing Aus ATC (RADAR)
07:24PM -26.2274 153.0601 324° Northwest 415 478 28,700 1,080 Climbing Aus ATC (RADAR)
07:25PM -26.1129 152.9676 324° Northwest 399 459 30,000 840 Climbing Aus ATC (RADAR)
07:26PM -26.0909 152.9489 323° Northwest 396 456 30,000  Level Aus ATC (RADAR)
07:26PM -26.0303 152.9010 325° Northwest 397 457 30,000  Level Aus ATC (RADAR)
07:27PM -25.9554 152.8414 324° Northwest 395 455 30,000  Level Aus ATC (RADAR)
07:28PM -25.9024 152.7990 324° Northwest 395 455 30,000  Level Aus ATC (RADAR)
07:29PM -25.8047 152.7210 324° Northwest 398 458 30,000  Level Aus ATC (RADAR)
07:29PM -25.7526 152.6784 324° Northwest 396 456 30,000  Level Aus ATC (RADAR)
07:30PM -25.6475 152.5947 324° Northwest 396 456 30,000  Level Aus ATC (RADAR)
07:31PM -25.6250 152.5770 325° Northwest 396 456 30,000  Level Aus ATC (RADAR)
07:31PM -25.5731 152.5355 324° Northwest 392 451 30,000  Level Aus ATC (RADAR)
07:32PM -25.4913 152.4717 325° Northwest 390 449 30,000  Level Aus ATC (RADAR)
07:33PM -25.4398 152.4309 324° Northwest 388 447 30,000  Level Aus ATC (RADAR)
07:34PM -25.3363 152.3490 324° Northwest 390 449 30,000  Level Aus ATC (RADAR)
07:34PM -25.2853 152.3070 323° Northwest 390 449 30,000  Level Aus ATC (RADAR)
07:35PM -25.1970 152.2376 325° Northwest 387 445 30,000  Level Aus ATC (RADAR)
07:36PM -25.1675 152.2141 324° Northwest 388 447 30,000  Level Aus ATC (RADAR)
07:36PM -25.1161 152.1730 324° Northwest 389 448 30,000  Level Aus ATC (RADAR)
07:37PM -25.0275 152.1043 325° Northwest 387 445 30,000  Level Aus ATC (RADAR)
07:38PM -24.9759 152.0632 324° Northwest 389 448 30,000 -120 Level Aus ATC (RADAR)
07:39PM -24.8867 151.9940 325° Northwest 391 450 29,900 -840 Descending Aus ATC (RADAR)
07:40PM -24.8275 151.9465 324° Northwest 396 456 28,600 -2,580 Descending Aus ATC (RADAR)
07:41PM -24.6719 151.8268 325° Northwest 392 451 23,800 -2,580 Descending Aus ATC (RADAR)
07:42PM -24.6497 151.8103 326° Northwest 389 448 23,500 -1,800 Descending Aus ATC (RADAR)
07:43PM -24.5655 151.7441 324° Northwest 370 426 21,600 -2,340 Descending Aus ATC (RADAR)
07:43PM -24.5180 151.7064 324° Northwest 363 418 19,800 -3,300 Descending Aus ATC (RADAR)
07:44PM -24.4273 151.6362 325° Northwest 371 427 16,100 -3,120 Descending Aus ATC (RADAR)
07:45PM -24.3794 151.5995 325° Northwest 361 415 14,600 -2,460 Descending Aus ATC (RADAR)
07:46PM -24.2600 151.5071 325° Northwest 346 398 11,000 -2,040 Descending Aus ATC (RADAR)
07:47PM -24.2414 151.4925 324° Northwest 337 388 11,100 -600 Climbing Aus ATC (RADAR)
07:47PM -24.1963 151.4580 325° Northwest 295 339 10,500 -1,320 Descending Aus ATC (RADAR)
07:48PM -24.1316 151.4082 325° Northwest 284 327 8,900 -1,680 Descending Aus ATC (RADAR)
07:49PM -24.0950 151.3793 324° Northwest 281 323 7,900 -1,740 Descending Aus ATC (RADAR)
07:50PM -24.0203 151.3218 325° Northwest 280 322 5,900 -1,680 Descending Aus ATC (RADAR)
07:51PM -23.9667 151.3023 342° North 273 314 4,700 -1,380 Descending Aus ATC (RADAR)
07:52PM -23.9101 151.2983 356° North 271 312 3,900 -960 Descending Aus ATC (RADAR)
07:52PM -23.8635 151.2880 349° North 258 297 3,400 -780 Descending Aus ATC (RADAR)
07:53PM -23.8383 151.2310 296° West 227 261 2,700 -900 Descending Aus ATC (RADAR)
07:54PM -23.8264 151.1974 291° West 204 235 2,100 -900 Descending Aus ATC (RADAR)
07:55PM -23.8434 151.1600 244° Southwest 144 166 1,200 -840 Descending Aus ATC (RADAR)
07:56PM -23.8592 151.1911 119° Southeast 141 162 600 -780 Descending Aus ATC (RADAR)
07:56PM -23.8656 151.2107 110° East 138 159 200 -840 Descending Aus ATC (RADAR)
07:58PM -23.8698 151.2227 105° East  Level FlightAware Approximate
08:05PM -23.8697 151.2228 105° East  Level Estimated
08:06PM -23.8697 151.2228 105° East  Level Estimated
08:07PM -23.8697 151.2228 105° East  Level Estimated
08:08PM -23.8697 151.2228 105° East  Level Estimated
08:09PM -23.8697 151.2228 105° East  Level Estimated
08:10PM -23.8697 151.2228 105° East  Level Estimated